sensor_id;sensor_type;location;lat;lon;timestamp;pressure;altitude;pressure_sealevel;temperature;humidity
19827;BME280;10074;52.018;4.726;2024-02-21T00:04:00;46459.88;;;-144.79;100.00
19827;BME280;10074;52.018;4.726;2024-02-21T00:09:00;46455.84;;;-144.79;100.00
19827;BME280;10074;52.018;4.726;2024-02-21T00:14:00;46461.88;;;-144.79;100.00
19827;BME280;10074;52.018;4.726;2024-02-21T00:19:01;46465.88;;;-144.79;100.00
19827;BME280;10074;52.018;4.726;2024-02-21T00:24:01;46453.84;;;-144.79;100.00
19827;BME280;10074;52.018;4.726;2024-02-21T00:29:01;46459.88;;;-144.79;100.00
19827;BME280;10074;52.018;4.726;2024-02-21T00:34:01;46461.88;;;-144.79;100.00
19827;BME280;10074;52.018;4.726;2024-02-21T00:39:02;46461.88;;;-144.79;100.00
19827;BME280;10074;52.018;4.726;2024-02-21T00:44:03;46459.88;;;-144.79;100.00
19827;BME280;10074;52.018;4.726;2024-02-21T00:49:05;46461.88;;;-144.79;100.00
19827;BME280;10074;52.018;4.726;2024-02-21T00:54:06;46461.88;;;-144.79;100.00
19827;BME280;10074;52.018;4.726;2024-02-21T00:59:06;46455.84;;;-144.79;100.00
19827;BME280;10074;52.018;4.726;2024-02-21T01:04:06;46457.88;;;-144.79;100.00
19827;BME280;10074;52.018;4.726;2024-02-21T01:09:07;46463.88;;;-144.79;100.00
19827;BME280;10074;52.018;4.726;2024-02-21T01:14:08;46457.88;;;-144.79;100.00
19827;BME280;10074;52.018;4.726;2024-02-21T01:19:08;46459.88;;;-144.79;100.00
19827;BME280;10074;52.018;4.726;2024-02-21T01:24:08;46465.88;;;-144.79;100.00
19827;BME280;10074;52.018;4.726;2024-02-21T01:29:08;46459.88;;;-144.79;100.00
19827;BME280;10074;52.018;4.726;2024-02-21T01:34:09;46461.88;;;-144.79;100.00
19827;BME280;10074;52.018;4.726;2024-02-21T01:39:09;46463.88;;;-144.79;100.00
19827;BME280;10074;52.018;4.726;2024-02-21T01:44:10;46459.88;;;-144.79;100.00
19827;BME280;10074;52.018;4.726;2024-02-21T01:49:10;46455.84;;;-144.79;100.00
19827;BME280;10074;52.018;4.726;2024-02-21T01:54:13;46467.88;;;-144.79;100.00
19827;BME280;10074;52.018;4.726;2024-02-21T01:59:15;46459.88;;;-144.79;100.00
19827;BME280;10074;52.018;4.726;2024-02-21T02:04:16;46457.88;;;-144.79;100.00
19827;BME280;10074;52.018;4.726;2024-02-21T02:09:16;46463.88;;;-144.79;100.00
19827;BME280;10074;52.018;4.726;2024-02-21T02:14:17;46459.88;;;-144.79;100.00
19827;BME280;10074;52.018;4.726;2024-02-21T02:19:17;46459.88;;;-144.79;100.00
19827;BME280;10074;52.018;4.726;2024-02-21T02:24:18;46457.88;;;-144.79;100.00
19827;BME280;10074;52.018;4.726;2024-02-21T02:29:19;46459.88;;;-144.79;100.00
19827;BME280;10074;52.018;4.726;2024-02-21T02:34:19;46457.88;;;-144.79;100.00
19827;BME280;10074;52.018;4.726;2024-02-21T02:39:20;46459.88;;;-144.79;100.00
19827;BME280;10074;52.018;4.726;2024-02-21T02:44:20;46461.88;;;-144.79;100.00
19827;BME280;10074;52.018;4.726;2024-02-21T02:49:20;46459.88;;;-144.79;100.00
19827;BME280;10074;52.018;4.726;2024-02-21T02:54:21;46459.88;;;-144.79;100.00
19827;BME280;10074;52.018;4.726;2024-02-21T02:59:21;46455.84;;;-144.79;100.00
19827;BME280;10074;52.018;4.726;2024-02-21T03:04:21;46459.88;;;-144.79;100.00
19827;BME280;10074;52.018;4.726;2024-02-21T03:09:21;46455.84;;;-144.79;100.00
19827;BME280;10074;52.018;4.726;2024-02-21T03:14:22;46459.88;;;-144.79;100.00
19827;BME280;10074;52.018;4.726;2024-02-21T03:19:22;46457.88;;;-144.79;100.00
19827;BME280;10074;52.018;4.726;2024-02-21T03:24:22;46459.88;;;-144.79;100.00
19827;BME280;10074;52.018;4.726;2024-02-21T03:29:23;46453.84;;;-144.79;100.00
19827;BME280;10074;52.018;4.726;2024-02-21T03:34:23;46461.88;;;-144.79;100.00
19827;BME280;10074;52.018;4.726;2024-02-21T03:39:24;46457.88;;;-144.79;100.00
19827;BME280;10074;52.018;4.726;2024-02-21T03:44:24;46459.88;;;-144.79;100.00
19827;BME280;10074;52.018;4.726;2024-02-21T03:49:24;46453.84;;;-144.79;100.00
19827;BME280;10074;52.018;4.726;2024-02-21T03:54:24;46451.84;;;-144.79;100.00
19827;BME280;10074;52.018;4.726;2024-02-21T03:59:25;46453.84;;;-144.79;100.00
19827;BME280;10074;52.018;4.726;2024-02-21T04:04:25;46457.88;;;-144.79;100.00
19827;BME280;10074;52.018;4.726;2024-02-21T04:09:25;46459.88;;;-144.79;100.00
19827;BME280;10074;52.018;4.726;2024-02-21T04:14:26;46459.88;;;-144.79;100.00
19827;BME280;10074;52.018;4.726;2024-02-21T04:19:26;46457.88;;;-144.79;100.00
19827;BME280;10074;52.018;4.726;2024-02-21T04:24:26;46461.88;;;-144.79;100.00
19827;BME280;10074;52.018;4.726;2024-02-21T04:29:27;46459.88;;;-144.79;100.00
19827;BME280;10074;52.018;4.726;2024-02-21T04:34:28;46461.88;;;-144.79;100.00
19827;BME280;10074;52.018;4.726;2024-02-21T04:39:28;46459.88;;;-144.79;100.00
19827;BME280;10074;52.018;4.726;2024-02-21T04:44:29;46457.88;;;-144.79;100.00
19827;BME280;10074;52.018;4.726;2024-02-21T04:49:29;46463.88;;;-144.79;100.00
19827;BME280;10074;52.018;4.726;2024-02-21T04:54:30;46459.88;;;-144.79;100.00
19827;BME280;10074;52.018;4.726;2024-02-21T04:59:30;46455.84;;;-144.79;100.00
19827;BME280;10074;52.018;4.726;2024-02-21T05:04:30;46459.88;;;-144.79;100.00
19827;BME280;10074;52.018;4.726;2024-02-21T05:09:31;46461.88;;;-144.79;100.00
19827;BME280;10074;52.018;4.726;2024-02-21T05:14:31;46457.88;;;-144.79;100.00
19827;BME280;10074;52.018;4.726;2024-02-21T05:19:31;46461.88;;;-144.79;100.00
19827;BME280;10074;52.018;4.726;2024-02-21T05:24:32;46455.84;;;-144.79;100.00
19827;BME280;10074;52.018;4.726;2024-02-21T05:29:33;46455.84;;;-144.79;100.00
19827;BME280;10074;52.018;4.726;2024-02-21T05:34:33;46453.84;;;-144.79;100.00
19827;BME280;10074;52.018;4.726;2024-02-21T05:39:33;46455.84;;;-144.79;100.00
19827;BME280;10074;52.018;4.726;2024-02-21T05:44:33;46455.84;;;-144.79;100.00
19827;BME280;10074;52.018;4.726;2024-02-21T05:49:34;46459.88;;;-144.79;100.00
19827;BME280;10074;52.018;4.726;2024-02-21T05:54:37;46459.88;;;-144.79;100.00
19827;BME280;10074;52.018;4.726;2024-02-21T05:59:38;46457.88;;;-144.79;100.00
19827;BME280;10074;52.018;4.726;2024-02-21T06:04:40;46457.88;;;-144.79;100.00
19827;BME280;10074;52.018;4.726;2024-02-21T06:09:40;46457.88;;;-144.79;100.00
19827;BME280;10074;52.018;4.726;2024-02-21T06:14:41;46453.84;;;-144.79;100.00
19827;BME280;10074;52.018;4.726;2024-02-21T06:19:43;46461.88;;;-144.79;100.00
19827;BME280;10074;52.018;4.726;2024-02-21T06:24:43;46461.88;;;-144.79;100.00
19827;BME280;10074;52.018;4.726;2024-02-21T06:29:44;46457.88;;;-144.79;100.00
19827;BME280;10074;52.018;4.726;2024-02-21T06:34:44;46455.84;;;-144.79;100.00
19827;BME280;10074;52.018;4.726;2024-02-21T06:39:44;46459.88;;;-144.79;100.00
19827;BME280;10074;52.018;4.726;2024-02-21T06:44:45;46455.84;;;-144.79;100.00
19827;BME280;10074;52.018;4.726;2024-02-21T06:49:49;46443.81;;;-144.79;100.00
19827;BME280;10074;52.018;4.726;2024-02-21T06:54:50;46435.81;;;-144.79;100.00
19827;BME280;10074;52.018;4.726;2024-02-21T06:59:50;46441.81;;;-144.79;100.00
19827;BME280;10074;52.018;4.726;2024-02-21T07:04:50;46443.81;;;-144.79;100.00
19827;BME280;10074;52.018;4.726;2024-02-21T07:09:50;46435.81;;;-144.79;100.00
19827;BME280;10074;52.018;4.726;2024-02-21T07:14:51;46443.81;;;-144.79;100.00
19827;BME280;10074;52.018;4.726;2024-02-21T07:19:51;46447.84;;;-144.79;100.00
19827;BME280;10074;52.018;4.726;2024-02-21T07:24:52;46443.81;;;-144.79;100.00
19827;BME280;10074;52.018;4.726;2024-02-21T07:29:52;46443.81;;;-144.79;100.00
19827;BME280;10074;52.018;4.726;2024-02-21T07:34:52;46445.84;;;-144.79;100.00
19827;BME280;10074;52.018;4.726;2024-02-21T07:39:52;46453.84;;;-144.79;100.00
19827;BME280;10074;52.018;4.726;2024-02-21T07:44:53;46449.84;;;-144.79;100.00
19827;BME280;10074;52.018;4.726;2024-02-21T07:49:53;46447.84;;;-144.79;100.00
19827;BME280;10074;52.018;4.726;2024-02-21T07:54:53;46447.84;;;-144.79;100.00
19827;BME280;10074;52.018;4.726;2024-02-21T07:59:54;46441.81;;;-144.79;100.00
19827;BME280;10074;52.018;4.726;2024-02-21T08:04:54;46435.81;;;-144.79;100.00
19827;BME280;10074;52.018;4.726;2024-02-21T08:09:54;46441.81;;;-144.79;100.00
19827;BME280;10074;52.018;4.726;2024-02-21T08:14:54;46439.81;;;-144.79;100.00
19827;BME280;10074;52.018;4.726;2024-02-21T08:19:55;46435.81;;;-144.79;100.00
19827;BME280;10074;52.018;4.726;2024-02-21T08:24:55;46435.81;;;-144.79;100.00
19827;BME280;10074;52.018;4.726;2024-02-21T08:29:56;46439.81;;;-144.79;100.00
19827;BME280;10074;52.018;4.726;2024-02-21T08:34:56;46439.81;;;-144.79;100.00
19827;BME280;10074;52.018;4.726;2024-02-21T08:39:56;46431.78;;;-144.79;100.00
19827;BME280;10074;52.018;4.726;2024-02-21T08:44:56;46429.78;;;-144.79;100.00
19827;BME280;10074;52.018;4.726;2024-02-21T08:49:57;46431.78;;;-144.79;100.00
19827;BME280;10074;52.018;4.726;2024-02-21T08:54:57;46427.78;;;-144.79;100.00
19827;BME280;10074;52.018;4.726;2024-02-21T08:59:57;46431.78;;;-144.79;100.00
19827;BME280;10074;52.018;4.726;2024-02-21T09:04:57;46429.78;;;-144.79;100.00
19827;BME280;10074;52.018;4.726;2024-02-21T09:09:58;46431.78;;;-144.79;100.00
19827;BME280;10074;52.018;4.726;2024-02-21T09:14:58;46427.78;;;-144.79;100.00
19827;BME280;10074;52.018;4.726;2024-02-21T09:19:58;46429.78;;;-144.79;100.00
19827;BME280;10074;52.018;4.726;2024-02-21T09:25:03;46425.78;;;-144.79;100.00
19827;BME280;10074;52.018;4.726;2024-02-21T09:30:05;46425.78;;;-144.79;100.00
19827;BME280;10074;52.018;4.726;2024-02-21T09:35:06;46417.75;;;-144.79;100.00
19827;BME280;10074;52.018;4.726;2024-02-21T09:40:07;46421.78;;;-144.79;100.00
19827;BME280;10074;52.018;4.726;2024-02-21T09:45:12;46425.78;;;-144.79;100.00
19827;BME280;10074;52.018;4.726;2024-02-21T09:50:16;46419.75;;;-144.79;100.00
19827;BME280;10074;52.018;4.726;2024-02-21T09:55:17;46415.75;;;-144.79;100.00
19827;BME280;10074;52.018;4.726;2024-02-21T10:00:18;46415.75;;;-144.79;100.00
19827;BME280;10074;52.018;4.726;2024-02-21T10:05:21;46419.75;;;-144.79;100.00
19827;BME280;10074;52.018;4.726;2024-02-21T10:10:22;46417.75;;;-144.79;100.00
19827;BME280;10074;52.018;4.726;2024-02-21T10:15:25;46417.75;;;-144.79;100.00
19827;BME280;10074;52.018;4.726;2024-02-21T10:20:26;46415.75;;;-144.79;100.00
19827;BME280;10074;52.018;4.726;2024-02-21T10:25:27;46407.72;;;-144.79;100.00
19827;BME280;10074;52.018;4.726;2024-02-21T10:30:27;46407.72;;;-144.79;100.00
19827;BME280;10074;52.018;4.726;2024-02-21T10:35:29;46401.72;;;-144.79;100.00
19827;BME280;10074;52.018;4.726;2024-02-21T10:40:30;46411.75;;;-144.79;100.00
19827;BME280;10074;52.018;4.726;2024-02-21T10:45:36;46415.75;;;-144.79;100.00
19827;BME280;10074;52.018;4.726;2024-02-21T10:55:59;46411.75;;;-144.79;100.00
19827;BME280;10074;52.018;4.726;2024-02-21T11:01:04;46419.75;;;-144.79;100.00
19827;BME280;10074;52.018;4.726;2024-02-21T11:06:06;46403.72;;;-144.79;100.00
19827;BME280;10074;52.018;4.726;2024-02-21T11:11:07;46409.75;;;-144.79;100.00
19827;BME280;10074;52.018;4.726;2024-02-21T11:16:11;46411.75;;;-144.79;100.00
19827;BME280;10074;52.018;4.726;2024-02-21T11:21:12;46409.75;;;-144.79;100.00
19827;BME280;10074;52.018;4.726;2024-02-21T11:26:18;46405.72;;;-144.79;100.00
19827;BME280;10074;52.018;4.726;2024-02-21T11:31:22;46407.72;;;-144.79;100.00
19827;BME280;10074;52.018;4.726;2024-02-21T11:36:26;46411.75;;;-144.79;100.00
19827;BME280;10074;52.018;4.726;2024-02-21T11:41:27;46401.72;;;-144.79;100.00
19827;BME280;10074;52.018;4.726;2024-02-21T11:46:27;46395.69;;;-144.79;100.00
19827;BME280;10074;52.018;4.726;2024-02-21T11:51:27;46399.72;;;-144.79;100.00
19827;BME280;10074;52.018;4.726;2024-02-21T11:56:27;46399.72;;;-144.79;100.00
19827;BME280;10074;52.018;4.726;2024-02-21T12:01:28;46397.72;;;-144.79;100.00
19827;BME280;10074;52.018;4.726;2024-02-21T12:06:28;46395.69;;;-144.79;100.00
19827;BME280;10074;52.018;4.726;2024-02-21T12:11:29;46403.72;;;-144.79;100.00
19827;BME280;10074;52.018;4.726;2024-02-21T12:16:29;46411.75;;;-144.79;100.00
19827;BME280;10074;52.018;4.726;2024-02-21T12:21:31;46415.75;;;-144.79;100.00
19827;BME280;10074;52.018;4.726;2024-02-21T12:26:32;46415.75;;;-144.79;100.00
19827;BME280;10074;52.018;4.726;2024-02-21T12:31:33;46413.75;;;-144.79;100.00
19827;BME280;10074;52.018;4.726;2024-02-21T12:36:33;46415.75;;;-144.79;100.00
19827;BME280;10074;52.018;4.726;2024-02-21T12:41:34;46421.78;;;-144.79;100.00
19827;BME280;10074;52.018;4.726;2024-02-21T12:46:38;46413.75;;;-144.79;100.00
19827;BME280;10074;52.018;4.726;2024-02-21T12:51:39;46411.75;;;-144.79;100.00
19827;BME280;10074;52.018;4.726;2024-02-21T12:56:42;46411.75;;;-144.79;100.00
19827;BME280;10074;52.018;4.726;2024-02-21T13:01:42;46403.72;;;-144.79;100.00
19827;BME280;10074;52.018;4.726;2024-02-21T13:06:42;46403.72;;;-144.79;100.00
19827;BME280;10074;52.018;4.726;2024-02-21T13:11:44;46411.75;;;-144.79;100.00
19827;BME280;10074;52.018;4.726;2024-02-21T13:16:46;46407.72;;;-144.79;100.00
19827;BME280;10074;52.018;4.726;2024-02-21T13:21:47;46407.72;;;-144.79;100.00
19827;BME280;10074;52.018;4.726;2024-02-21T13:26:47;46409.75;;;-144.79;100.00
19827;BME280;10074;52.018;4.726;2024-02-21T13:31:47;46411.75;;;-144.79;100.00
19827;BME280;10074;52.018;4.726;2024-02-21T13:36:48;46415.75;;;-144.79;100.00
19827;BME280;10074;52.018;4.726;2024-02-21T13:41:48;46415.75;;;-144.79;100.00
19827;BME280;10074;52.018;4.726;2024-02-21T13:46:49;46411.75;;;-144.79;100.00
19827;BME280;10074;52.018;4.726;2024-02-21T13:51:49;46413.75;;;-144.79;100.00
19827;BME280;10074;52.018;4.726;2024-02-21T13:56:49;46415.75;;;-144.79;100.00
19827;BME280;10074;52.018;4.726;2024-02-21T14:01:50;46407.72;;;-144.79;100.00
19827;BME280;10074;52.018;4.726;2024-02-21T14:06:50;46399.72;;;-144.79;100.00
19827;BME280;10074;52.018;4.726;2024-02-21T14:11:51;46395.69;;;-144.79;100.00
19827;BME280;10074;52.018;4.726;2024-02-21T14:16:51;46407.72;;;-144.79;100.00
19827;BME280;10074;52.018;4.726;2024-02-21T14:21:51;46407.72;;;-144.79;100.00
19827;BME280;10074;52.018;4.726;2024-02-21T14:26:53;46393.69;;;-144.79;100.00
19827;BME280;10074;52.018;4.726;2024-02-21T14:31:53;46399.72;;;-144.79;100.00
19827;BME280;10074;52.018;4.726;2024-02-21T14:36:53;46399.72;;;-144.79;100.00
19827;BME280;10074;52.018;4.726;2024-02-21T14:41:54;46409.75;;;-144.79;100.00
19827;BME280;10074;52.018;4.726;2024-02-21T14:46:55;46407.72;;;-144.79;100.00
19827;BME280;10074;52.018;4.726;2024-02-21T14:51:55;46417.75;;;-144.79;100.00
19827;BME280;10074;52.018;4.726;2024-02-21T14:56:55;46415.75;;;-144.79;100.00
19827;BME280;10074;52.018;4.726;2024-02-21T15:01:55;46415.75;;;-144.79;100.00
19827;BME280;10074;52.018;4.726;2024-02-21T15:06:56;46417.75;;;-144.79;100.00
19827;BME280;10074;52.018;4.726;2024-02-21T15:11:56;46407.72;;;-144.79;100.00
19827;BME280;10074;52.018;4.726;2024-02-21T15:16:56;46411.75;;;-144.79;100.00
19827;BME280;10074;52.018;4.726;2024-02-21T15:21:57;46419.75;;;-144.79;100.00
19827;BME280;10074;52.018;4.726;2024-02-21T15:26:57;46431.78;;;-144.79;100.00
19827;BME280;10074;52.018;4.726;2024-02-21T15:31:57;46431.78;;;-144.79;100.00
19827;BME280;10074;52.018;4.726;2024-02-21T15:36:58;46427.78;;;-144.79;100.00
19827;BME280;10074;52.018;4.726;2024-02-21T15:41:59;46443.81;;;-144.79;100.00
19827;BME280;10074;52.018;4.726;2024-02-21T15:46:59;46429.78;;;-144.79;100.00
19827;BME280;10074;52.018;4.726;2024-02-21T15:51:59;46433.81;;;-144.79;100.00
19827;BME280;10074;52.018;4.726;2024-02-21T15:57:00;46431.78;;;-144.79;100.00
19827;BME280;10074;52.018;4.726;2024-02-21T16:02:06;46435.81;;;-144.79;100.00
19827;BME280;10074;52.018;4.726;2024-02-21T16:07:06;46435.81;;;-144.79;100.00
19827;BME280;10074;52.018;4.726;2024-02-21T16:12:06;46431.78;;;-144.79;100.00
19827;BME280;10074;52.018;4.726;2024-02-21T16:17:08;46431.78;;;-144.79;100.00
19827;BME280;10074;52.018;4.726;2024-02-21T16:22:10;46435.81;;;-144.79;100.00
19827;BME280;10074;52.018;4.726;2024-02-21T16:27:10;46427.78;;;-144.79;100.00
19827;BME280;10074;52.018;4.726;2024-02-21T16:32:10;46433.81;;;-144.79;100.00
19827;BME280;10074;52.018;4.726;2024-02-21T16:37:11;46427.78;;;-144.79;100.00
19827;BME280;10074;52.018;4.726;2024-02-21T16:42:13;46431.78;;;-144.79;100.00
19827;BME280;10074;52.018;4.726;2024-02-21T16:47:14;46423.78;;;-144.79;100.00
19827;BME280;10074;52.018;4.726;2024-02-21T16:52:14;46425.78;;;-144.79;100.00
19827;BME280;10074;52.018;4.726;2024-02-21T16:57:15;46431.78;;;-144.79;100.00
19827;BME280;10074;52.018;4.726;2024-02-21T17:02:15;46427.78;;;-144.79;100.00
19827;BME280;10074;52.018;4.726;2024-02-21T17:07:15;46433.81;;;-144.79;100.00
19827;BME280;10074;52.018;4.726;2024-02-21T17:12:16;46431.78;;;-144.79;100.00
19827;BME280;10074;52.018;4.726;2024-02-21T17:17:16;46429.78;;;-144.79;100.00
19827;BME280;10074;52.018;4.726;2024-02-21T17:22:17;46431.78;;;-144.79;100.00
19827;BME280;10074;52.018;4.726;2024-02-21T17:27:17;46431.78;;;-144.79;100.00
19827;BME280;10074;52.018;4.726;2024-02-21T17:32:17;46433.81;;;-144.79;100.00
19827;BME280;10074;52.018;4.726;2024-02-21T17:37:18;46427.78;;;-144.79;100.00
19827;BME280;10074;52.018;4.726;2024-02-21T17:42:18;46435.81;;;-144.79;100.00
19827;BME280;10074;52.018;4.726;2024-02-21T17:47:18;46431.78;;;-144.79;100.00
19827;BME280;10074;52.018;4.726;2024-02-21T17:52:18;46431.78;;;-144.79;100.00
19827;BME280;10074;52.018;4.726;2024-02-21T17:57:20;46435.81;;;-144.79;100.00
19827;BME280;10074;52.018;4.726;2024-02-21T18:02:20;46429.78;;;-144.79;100.00
19827;BME280;10074;52.018;4.726;2024-02-21T18:07:24;46431.78;;;-144.79;100.00
19827;BME280;10074;52.018;4.726;2024-02-21T18:12:24;46431.78;;;-144.79;100.00
19827;BME280;10074;52.018;4.726;2024-02-21T18:17:24;46433.81;;;-144.79;100.00
19827;BME280;10074;52.018;4.726;2024-02-21T18:22:25;46433.81;;;-144.79;100.00
19827;BME280;10074;52.018;4.726;2024-02-21T18:27:26;46433.81;;;-144.79;100.00
19827;BME280;10074;52.018;4.726;2024-02-21T18:32:27;46433.81;;;-144.79;100.00
19827;BME280;10074;52.018;4.726;2024-02-21T18:37:28;46435.81;;;-144.79;100.00
19827;BME280;10074;52.018;4.726;2024-02-21T18:42:29;46435.81;;;-144.79;100.00
19827;BME280;10074;52.018;4.726;2024-02-21T18:47:29;46439.81;;;-144.79;100.00
19827;BME280;10074;52.018;4.726;2024-02-21T18:52:30;46443.81;;;-144.79;100.00
19827;BME280;10074;52.018;4.726;2024-02-21T18:57:30;46445.84;;;-144.79;100.00
19827;BME280;10074;52.018;4.726;2024-02-21T19:02:33;46447.84;;;-144.79;100.00
19827;BME280;10074;52.018;4.726;2024-02-21T19:07:33;46439.81;;;-144.79;100.00
19827;BME280;10074;52.018;4.726;2024-02-21T19:12:34;46443.81;;;-144.79;100.00
19827;BME280;10074;52.018;4.726;2024-02-21T19:17:36;46441.81;;;-144.79;100.00
19827;BME280;10074;52.018;4.726;2024-02-21T19:22:37;46447.84;;;-144.79;100.00
19827;BME280;10074;52.018;4.726;2024-02-21T19:27:40;46443.81;;;-144.79;100.00
19827;BME280;10074;52.018;4.726;2024-02-21T19:32:41;46451.84;;;-144.79;100.00
19827;BME280;10074;52.018;4.726;2024-02-21T19:37:41;46451.84;;;-144.79;100.00
19827;BME280;10074;52.018;4.726;2024-02-21T19:42:43;46453.84;;;-144.79;100.00
19827;BME280;10074;52.018;4.726;2024-02-21T19:47:43;46455.84;;;-144.79;100.00
19827;BME280;10074;52.018;4.726;2024-02-21T19:52:43;46459.88;;;-144.79;100.00
19827;BME280;10074;52.018;4.726;2024-02-21T19:57:44;46447.84;;;-144.79;100.00
19827;BME280;10074;52.018;4.726;2024-02-21T20:02:46;46455.84;;;-144.79;100.00
19827;BME280;10074;52.018;4.726;2024-02-21T20:07:49;46451.84;;;-144.79;100.00
19827;BME280;10074;52.018;4.726;2024-02-21T20:12:49;46453.84;;;-144.79;100.00
19827;BME280;10074;52.018;4.726;2024-02-21T20:17:50;46455.84;;;-144.79;100.00
19827;BME280;10074;52.018;4.726;2024-02-21T20:22:50;46455.84;;;-144.79;100.00
19827;BME280;10074;52.018;4.726;2024-02-21T20:27:50;46457.88;;;-144.79;100.00
19827;BME280;10074;52.018;4.726;2024-02-21T20:32:51;46455.84;;;-144.79;100.00
19827;BME280;10074;52.018;4.726;2024-02-21T20:37:52;46453.84;;;-144.79;100.00
19827;BME280;10074;52.018;4.726;2024-02-21T20:42:53;46455.84;;;-144.79;100.00
19827;BME280;10074;52.018;4.726;2024-02-21T20:47:53;46457.88;;;-144.79;100.00
19827;BME280;10074;52.018;4.726;2024-02-21T20:52:54;46455.84;;;-144.79;100.00
19827;BME280;10074;52.018;4.726;2024-02-21T20:57:54;46455.84;;;-144.79;100.00
19827;BME280;10074;52.018;4.726;2024-02-21T21:02:54;46457.88;;;-144.79;100.00
19827;BME280;10074;52.018;4.726;2024-02-21T21:07:54;46455.84;;;-144.79;100.00
19827;BME280;10074;52.018;4.726;2024-02-21T21:12:55;46455.84;;;-144.79;100.00
19827;BME280;10074;52.018;4.726;2024-02-21T21:17:55;46451.84;;;-144.79;100.00
19827;BME280;10074;52.018;4.726;2024-02-21T21:22:56;46459.88;;;-144.79;100.00
19827;BME280;10074;52.018;4.726;2024-02-21T21:27:57;46459.88;;;-144.79;100.00
19827;BME280;10074;52.018;4.726;2024-02-21T21:32:57;46455.84;;;-144.79;100.00
19827;BME280;10074;52.018;4.726;2024-02-21T21:37:57;46459.88;;;-144.79;100.00
19827;BME280;10074;52.018;4.726;2024-02-21T21:42:59;46463.88;;;-144.79;100.00
19827;BME280;10074;52.018;4.726;2024-02-21T21:48:00;46459.88;;;-144.79;100.00
19827;BME280;10074;52.018;4.726;2024-02-21T21:53:00;46461.88;;;-144.79;100.00
19827;BME280;10074;52.018;4.726;2024-02-21T21:58:00;46457.88;;;-144.79;100.00
19827;BME280;10074;52.018;4.726;2024-02-21T22:03:01;46461.88;;;-144.79;100.00
19827;BME280;10074;52.018;4.726;2024-02-21T22:08:01;46463.88;;;-144.79;100.00
19827;BME280;10074;52.018;4.726;2024-02-21T22:13:01;46463.88;;;-144.79;100.00
19827;BME280;10074;52.018;4.726;2024-02-21T22:18:03;46463.88;;;-144.79;100.00
19827;BME280;10074;52.018;4.726;2024-02-21T22:23:04;46463.88;;;-144.79;100.00
19827;BME280;10074;52.018;4.726;2024-02-21T22:28:04;46461.88;;;-144.79;100.00
19827;BME280;10074;52.018;4.726;2024-02-21T22:33:05;46471.91;;;-144.79;100.00
19827;BME280;10074;52.018;4.726;2024-02-21T22:38:05;46467.88;;;-144.79;100.00
19827;BME280;10074;52.018;4.726;2024-02-21T22:43:06;46467.88;;;-144.79;100.00
19827;BME280;10074;52.018;4.726;2024-02-21T22:48:06;46471.91;;;-144.79;100.00
19827;BME280;10074;52.018;4.726;2024-02-21T22:53:07;46467.88;;;-144.79;100.00
19827;BME280;10074;52.018;4.726;2024-02-21T22:58:07;46469.88;;;-144.79;100.00
19827;BME280;10074;52.018;4.726;2024-02-21T23:03:07;46469.88;;;-144.79;100.00
19827;BME280;10074;52.018;4.726;2024-02-21T23:08:08;46467.88;;;-144.79;100.00
19827;BME280;10074;52.018;4.726;2024-02-21T23:13:08;46467.88;;;-144.79;100.00
19827;BME280;10074;52.018;4.726;2024-02-21T23:18:09;46465.88;;;-144.79;100.00
19827;BME280;10074;52.018;4.726;2024-02-21T23:23:09;46475.91;;;-144.79;100.00
19827;BME280;10074;52.018;4.726;2024-02-21T23:28:09;46477.91;;;-144.79;100.00
19827;BME280;10074;52.018;4.726;2024-02-21T23:33:10;46479.91;;;-144.79;100.00
19827;BME280;10074;52.018;4.726;2024-02-21T23:38:10;46471.91;;;-144.79;100.00
19827;BME280;10074;52.018;4.726;2024-02-21T23:43:11;46473.91;;;-144.79;100.00
19827;BME280;10074;52.018;4.726;2024-02-21T23:48:11;46473.91;;;-144.79;100.00
19827;BME280;10074;52.018;4.726;2024-02-21T23:53:13;46473.91;;;-144.79;100.00
19827;BME280;10074;52.018;4.726;2024-02-21T23:58:13;46473.91;;;-144.79;100.00
